Brendan Turecamo — WDB9024 — position and weather

sailwx.info

Track history (hours):
 
Tides and Currents Weather Stations Pressure Air Temp Water Temp Dewpoint Dewpoint Depression Visibility Wind Speed Wind Dir Waves Ship Positions

Brendan Turecamo

Owner: Moran Towing Corporation, New Canaan, CT. More information available from US FCC via Universal Licensing System and Coast Guard Vessel Documentation Center.

Last reported at 2017-Oct-22 04:29 UTC. Time now 2017-Oct-22 04:57 UTC.
Position N 40°46' W 073°57'.

Length 123 m; draft 4.7 m.

Type: Tug. MMSI: 366946760.

Date/timePositionNaut miles runAvg speedWind from/ knotsBaromVisibWave heightAir tempDewpointWater temp
2017-Oct-22 04:29N 40°46' W 073°57'2 3.3
2017-Oct-22 04:00N 40°44' W 073°58'3 5.9
2017-Oct-22 03:30N 40°42' W 074°00'3 5.9
2017-Oct-22 03:00N 40°40' W 074°03'0 0.2
2017-Oct-22 02:30N 40°40' W 074°03'0 0.0
2017-Oct-22 02:00N 40°40' W 074°03'0 0.0
2017-Oct-22 01:30N 40°40' W 074°03'0 0.0
2017-Oct-22 01:00N 40°40' W 074°03'0 0.0
2017-Oct-22 00:30N 40°40' W 074°03'0 0.1
2017-Oct-22 00:00N 40°40' W 074°03'0 0.0
2017-Oct-21 23:30N 40°40' W 074°03'0 0.2
2017-Oct-21 23:00N 40°40' W 074°03'0 0.1
2017-Oct-21 22:30N 40°40' W 074°03'0 0.1
2017-Oct-21 22:00N 40°39' W 074°03'0 0.1
2017-Oct-21 21:30N 40°39' W 074°03'0 0.1
2017-Oct-21 21:00N 40°39' W 074°03'2 3.3
2017-Oct-21 20:30N 40°39' W 074°05'0 0.3
2017-Oct-21 19:59N 40°39' W 074°05'0 0.0
2017-Oct-21 19:30N 40°39' W 074°05'2 4.3
2017-Oct-21 18:59N 40°38' W 074°08'0 0.1
2017-Oct-21 18:29N 40°38' W 074°08'0 0.0
2017-Oct-21 18:00N 40°38' W 074°08'0 0.0
2017-Oct-21 17:30N 40°38' W 074°08'0 0.0
2017-Oct-21 16:59N 40°38' W 074°08'0 0.0
2017-Oct-21 16:27N 40°38' W 074°08'0 0.0
2017-Oct-21 16:00N 40°38' W 074°08'0 0.0
2017-Oct-21 14:36N 40°38' W 074°08'0 0.0
2017-Oct-21 14:28N 40°38' W 074°08'0 0.0
2017-Oct-21 13:11N 40°38' W 074°08'0 0.0
2017-Oct-21 12:42N 40°38' W 074°08'0 0.0
2017-Oct-21 11:47N 40°38' W 074°08'0 0.0
2017-Oct-21 11:04N 40°38' W 074°08'0 0.9
2017-Oct-21 11:00N 40°38' W 074°08'0 0.0
2017-Oct-21 10:30N 40°38' W 074°08'0 0.0
2017-Oct-21 10:00N 40°38' W 074°08'0 0.0
2017-Oct-21 09:30N 40°38' W 074°08'0 0.0
2017-Oct-21 09:00N 40°38' W 074°08'0 0.0
2017-Oct-21 08:29N 40°38' W 074°08'0 0.0
2017-Oct-21 08:00N 40°38' W 074°08'0 0.0
2017-Oct-21 07:30N 40°38' W 074°08'0 0.0
2017-Oct-21 07:00N 40°38' W 074°08'0 0.0
2017-Oct-21 06:30N 40°38' W 074°08'0 0.0
2017-Oct-21 06:00N 40°38' W 074°08'0 0.0
2017-Oct-21 05:30N 40°38' W 074°08'0 0.0
2017-Oct-21 05:00N 40°38' W 074°08'0 0.0
2017-Oct-21 04:30N 40°38' W 074°08'0 0.0
2017-Oct-21 04:00N 40°38' W 074°08'0 0.0
2017-Oct-21 03:29N 40°38' W 074°08'0 0.0
2017-Oct-21 03:00N 40°38' W 074°08'0 0.0
2017-Oct-21 02:30N 40°38' W 074°08'2 4.4
2017-Oct-21 02:00N 40°39' W 074°05'0 0.2
2017-Oct-21 01:30N 40°39' W 074°05'1 1.3
2017-Oct-21 01:00N 40°39' W 074°04'4 8.6
2017-Oct-21 00:30N 40°43' W 074°02'5 9.4
2017-Oct-21 00:00N 40°47' W 073°60'0 0.5
2017-Oct-20 23:29N 40°47' W 073°59'0 0.1
2017-Oct-20 23:00N 40°47' W 073°59'0 0.0
2017-Oct-20 22:30N 40°47' W 073°59'0 0.0
2017-Oct-20 21:59N 40°47' W 073°59'0 0.0
2017-Oct-20 21:30N 40°47' W 073°59'0 0.0
2017-Oct-20 21:00N 40°47' W 073°59'0 0.0
2017-Oct-20 20:30N 40°47' W 073°59'0 0.0
2017-Oct-20 20:00N 40°47' W 073°59'0 0.0
2017-Oct-20 19:30N 40°47' W 073°59'0 0.0
2017-Oct-20 19:00N 40°47' W 073°59'0 0.0
2017-Oct-20 18:30N 40°47' W 073°59'0 0.0
2017-Oct-20 18:00N 40°47' W 073°59'0 0.0
2017-Oct-20 17:30N 40°47' W 073°59'0 0.0
2017-Oct-20 17:00N 40°47' W 073°59'0 0.0
2017-Oct-20 16:30N 40°47' W 073°59'0 0.1
2017-Oct-20 16:00N 40°47' W 073°59'0 0.1
2017-Oct-20 15:30N 40°47' W 073°59'0 0.0
2017-Oct-20 15:00N 40°47' W 073°59'0 0.0
2017-Oct-20 14:00N 40°47' W 073°59'0 0.0
2017-Oct-20 13:30N 40°47' W 073°59'0 0.0
2017-Oct-20 13:00N 40°47' W 073°59'0 0.0
2017-Oct-20 12:30N 40°47' W 073°59'0 0.0
2017-Oct-20 12:00N 40°47' W 073°59'0 0.0
2017-Oct-20 11:28N 40°47' W 073°59'0 0.1
2017-Oct-20 11:00N 40°47' W 073°59'0 0.2
2017-Oct-20 10:30N 40°47' W 073°59'0 0.1
2017-Oct-20 09:58N 40°47' W 073°59'0 0.0
2017-Oct-20 09:30N 40°47' W 073°59'0 0.0
2017-Oct-20 09:00N 40°47' W 073°59'0 0.0
2017-Oct-20 08:30N 40°47' W 073°59'0 0.0
2017-Oct-20 07:59N 40°47' W 073°59'0 0.0
2017-Oct-20 07:30N 40°47' W 073°59'0 0.0
2017-Oct-20 07:00N 40°47' W 073°59'0 0.0
2017-Oct-20 06:30N 40°47' W 073°59'0 0.0
2017-Oct-20 06:00N 40°47' W 073°59'0 0.0
2017-Oct-20 05:30N 40°47' W 073°59'0 0.2
2017-Oct-20 05:00N 40°47' W 073°59'0 0.2
2017-Oct-20 04:29N 40°47' W 073°59'0 0.0
2017-Oct-20 04:00N 40°47' W 073°59'0 0.0
2017-Oct-20 03:30N 40°47' W 073°59'0 0.0
2017-Oct-20 03:00N 40°47' W 073°59'0 0.0
2017-Oct-20 02:30N 40°47' W 073°59'0 0.0
2017-Oct-20 02:00N 40°47' W 073°59'0 0.0
2017-Oct-20 01:30N 40°47' W 073°59'0 0.0
2017-Oct-20 01:00N 40°47' W 073°59'0 0.0
2017-Oct-20 00:30N 40°47' W 073°59'0 0.0
2017-Oct-20 00:00N 40°47' W 073°59'0 0.0
2017-Oct-19 23:30N 40°47' W 073°59'0 0.0
2017-Oct-19 23:00N 40°47' W 073°59'0 0.0
2017-Oct-19 22:30N 40°47' W 073°59'0 0.0
2017-Oct-19 22:00N 40°48' W 073°59'0 0.2
2017-Oct-19 21:30N 40°47' W 073°59'0 0.0
2017-Oct-19 21:00N 40°47' W 073°59'0 0.0
2017-Oct-19 20:00N 40°47' W 073°59'0 0.0
2017-Oct-19 19:30N 40°47' W 073°59'0 0.0
2017-Oct-19 19:00N 40°47' W 073°59'0 0.0
2017-Oct-19 18:30N 40°47' W 073°59'0 0.0
2017-Oct-19 18:00N 40°47' W 073°59'0 0.0
2017-Oct-19 17:30N 40°47' W 073°59'0 0.2
2017-Oct-19 17:00N 40°47' W 073°59'0 0.0
2017-Oct-19 16:30N 40°47' W 073°59'0 0.0
2017-Oct-19 15:59N 40°47' W 073°59'0 0.0
2017-Oct-19 15:29N 40°47' W 073°59'0 0.0
2017-Oct-19 15:00N 40°47' W 073°59'0 0.0
2017-Oct-19 14:30N 40°47' W 073°59'0 0.0
2017-Oct-19 14:00N 40°47' W 073°59'0 0.0
2017-Oct-19 13:30N 40°47' W 073°59'0 0.0
2017-Oct-19 13:00N 40°47' W 073°59'0 0.0
2017-Oct-19 12:30N 40°47' W 073°59'0 0.0
2017-Oct-19 12:00N 40°47' W 073°59'0 0.0
2017-Oct-19 11:30N 40°47' W 073°59'0 0.0
2017-Oct-19 11:00N 40°47' W 073°59'0 0.0
2017-Oct-19 10:29N 40°47' W 073°59'0 0.1
2017-Oct-19 09:59N 40°47' W 073°59'0 0.2
2017-Oct-19 09:30N 40°47' W 073°59'0 0.1
2017-Oct-19 09:00N 40°47' W 073°59'0 0.0
2017-Oct-19 08:30N 40°47' W 073°59'0 0.0
2017-Oct-19 08:00N 40°47' W 073°59'0 0.0
2017-Oct-19 07:30N 40°47' W 073°59'0 0.0
2017-Oct-19 07:00N 40°47' W 073°59'0 0.0
2017-Oct-19 06:30N 40°47' W 073°59'0 0.0
2017-Oct-19 06:00N 40°47' W 073°59'0 0.0
2017-Oct-19 05:30N 40°47' W 073°59'0 0.0
2017-Oct-19 05:00N 40°47' W 073°59'0 0.0
2017-Oct-19 04:30N 40°47' W 073°59'0 0.2
2017-Oct-19 04:00N 40°47' W 073°59'0 0.1
2017-Oct-19 03:30N 40°47' W 073°59'0 0.0
2017-Oct-19 03:00N 40°47' W 073°59'0 0.0
2017-Oct-19 02:30N 40°48' W 073°59'0 0.0
2017-Oct-19 02:00N 40°47' W 073°59'0 0.0
2017-Oct-19 01:30N 40°47' W 073°59'0 0.0
2017-Oct-19 01:00N 40°47' W 073°59'0 0.0
2017-Oct-19 00:30N 40°47' W 073°59'0 0.0
2017-Oct-19 00:00N 40°47' W 073°59'0 0.0
2017-Oct-18 23:30N 40°47' W 073°59'0 0.0
2017-Oct-18 22:59N 40°47' W 073°59'0 0.0
2017-Oct-18 22:30N 40°47' W 073°59'0 0.0
2017-Oct-18 22:00N 40°47' W 073°59'0 0.0
2017-Oct-18 21:30N 40°48' W 073°59'0 0.2
2017-Oct-18 21:00N 40°47' W 073°59'0 0.0
2017-Oct-18 20:30N 40°47' W 073°59'0 0.0
2017-Oct-18 20:00N 40°47' W 073°59'0 0.0
2017-Oct-18 19:30N 40°47' W 073°59'0 0.0
2017-Oct-18 19:00N 40°47' W 073°59'0 0.0
2017-Oct-18 18:30N 40°47' W 073°59'0 0.0
2017-Oct-18 18:00N 40°47' W 073°59'0 0.0
2017-Oct-18 17:30N 40°47' W 073°59'0 0.0
2017-Oct-18 17:00N 40°47' W 073°59'0 0.0
2017-Oct-18 16:30N 40°47' W 073°59'0 0.0
2017-Oct-18 16:00N 40°47' W 073°59'0 0.0
2017-Oct-18 15:30N 40°47' W 073°59'0 0.2
2017-Oct-18 15:00N 40°47' W 073°59'0 0.0
2017-Oct-18 14:00N 40°47' W 073°59'0 0.0
2017-Oct-18 13:29N 40°47' W 073°59'0 0.3
2017-Oct-18 13:00N 40°47' W 073°59'511.0
2017-Oct-18 12:30N 40°42' W 074°02'2 4.9
2017-Oct-18 12:00N 40°40' W 074°02'2 3.6
2017-Oct-18 11:30N 40°39' W 074°05'2 4.8
2017-Oct-18 11:00N 40°38' W 074°08'3 2.6
2017-Oct-18 10:00N 40°39' W 074°11'0 0.4
2017-Oct-18 09:29N 40°39' W 074°11'3 5.9
2017-Oct-18 09:00N 40°39' W 074°07'3 6.4
2017-Oct-18 08:30N 40°38' W 074°03'3 6.2
2017-Oct-18 07:57N 40°38' W 074°08'0 0.0
2017-Oct-18 07:30N 40°38' W 074°08'0 0.0
2017-Oct-18 06:54N 40°38' W 074°08'0 0.0
2017-Oct-18 06:30N 40°38' W 074°08'0 0.0
2017-Oct-18 06:00N 40°38' W 074°08'0 0.0
2017-Oct-18 05:30N 40°38' W 074°08'0 0.0
2017-Oct-18 05:00N 40°38' W 074°08'0 0.0
2017-Oct-18 04:15N 40°38' W 074°08'0 0.0
2017-Oct-18 04:00N 40°38' W 074°08'0 0.0
2017-Oct-18 03:30N 40°38' W 074°08'0 0.0
2017-Oct-18 02:39N 40°38' W 074°08'0 0.0
2017-Oct-18 02:27N 40°38' W 074°08'0 0.0
2017-Oct-18 01:51N 40°38' W 074°08'0 0.0
2017-Oct-18 01:30N 40°38' W 074°08'0 0.0
2017-Oct-18 01:00N 40°38' W 074°08'0 0.0
2017-Oct-18 00:30N 40°38' W 074°08'0 0.0
2017-Oct-18 00:00N 40°38' W 074°08'0 0.0
2017-Oct-17 23:30N 40°38' W 074°08'0 0.0
2017-Oct-17 23:00N 40°38' W 074°08'0 0.0
2017-Oct-17 22:24N 40°38' W 074°08'0 0.0
2017-Oct-17 21:54N 40°38' W 074°08'1 2.5
2017-Oct-17 21:30N 40°39' W 074°09'3 4.4
2017-Oct-17 20:48N 40°42' W 074°09'2 5.8
2017-Oct-17 20:31N 40°40' W 074°08'1 1.1
2017-Oct-17 19:58N 40°40' W 074°08'2 4.1
2017-Oct-17 19:30N 40°39' W 074°06'5 9.6
2017-Oct-17 19:00N 40°41' W 074°01'0 0.6
2017-Oct-17 18:28N 40°41' W 074°00'0 0.0
2017-Oct-17 17:58N 40°41' W 074°00'0 0.5
2017-Oct-17 17:31N 40°41' W 074°01'0 0.5
2017-Oct-17 17:00N 40°41' W 074°01'2 5.0
2017-Oct-17 16:30N 40°39' W 074°03'1 1.2
2017-Oct-17 16:00N 40°39' W 074°04'3 4.5
2017-Oct-17 15:17N 40°38' W 074°08'0 0.0
2017-Oct-17 14:59N 40°38' W 074°08'0 0.0
2017-Oct-17 12:05N 40°38' W 074°08'0 3.1
2017-Oct-17 12:00N 40°39' W 074°07'4 7.3
2017-Oct-17 11:30N 40°40' W 074°03'0 0.8
2017-Oct-17 10:59N 40°40' W 074°02'0 0.0
2017-Oct-17 10:29N 40°40' W 074°02'0 0.1
2017-Oct-17 09:59N 40°40' W 074°02'0 0.0
2017-Oct-17 09:29N 40°40' W 074°02'0 0.0
2017-Oct-17 08:59N 40°40' W 074°02'0 0.1
2017-Oct-17 08:29N 40°40' W 074°03'0 0.0
2017-Oct-17 07:59N 40°40' W 074°03'0 0.0
2017-Oct-17 07:29N 40°40' W 074°03'0 0.0
2017-Oct-17 06:59N 40°40' W 074°03'0 0.0
2017-Oct-17 06:29N 40°40' W 074°03'0 0.0
2017-Oct-17 05:59N 40°40' W 074°03'0 0.0
2017-Oct-17 05:29N 40°40' W 074°03'0 0.0
2017-Oct-17 04:59N 40°40' W 074°03'0 0.0
2017-Oct-17 04:29N 40°40' W 074°03'0 0.0
2017-Oct-17 03:59N 40°40' W 074°03'0 0.0
2017-Oct-17 03:29N 40°40' W 074°03'0 0.0
2017-Oct-17 02:59N 40°40' W 074°03'0 0.0
2017-Oct-17 02:29N 40°40' W 074°03'0 0.0
2017-Oct-17 01:59N 40°40' W 074°03'0 0.0
2017-Oct-17 01:29N 40°40' W 074°03'0 0.0
2017-Oct-17 00:59N 40°40' W 074°03'0 0.0
2017-Oct-17 00:29N 40°40' W 074°02'0 0.0
2017-Oct-16 23:59N 40°40' W 074°02'0 0.1
2017-Oct-16 23:29N 40°40' W 074°02'0 0.0
2017-Oct-16 22:59N 40°40' W 074°02'0 0.0
2017-Oct-16 22:29N 40°40' W 074°02'0 0.0
2017-Oct-16 21:56N 40°40' W 074°02'0 0.1
2017-Oct-16 21:29N 40°40' W 074°03'0 0.0
2017-Oct-16 20:59N 40°40' W 074°03'0 0.0
2017-Oct-16 20:29N 40°40' W 074°02'0 0.1
2017-Oct-16 19:59N 40°40' W 074°03'0 0.0
2017-Oct-16 19:29N 40°40' W 074°03'0 0.0
2017-Oct-16 18:59N 40°40' W 074°03'0 0.0
2017-Oct-16 18:29N 40°40' W 074°03'0 0.0
2017-Oct-16 17:59N 40°40' W 074°03'0 0.0
2017-Oct-16 17:29N 40°40' W 074°03'0 0.0
2017-Oct-16 16:59N 40°40' W 074°03'0 0.0
2017-Oct-16 16:29N 40°40' W 074°03'0 0.0
2017-Oct-16 15:59N 40°40' W 074°03'0 0.0
2017-Oct-16 15:29N 40°40' W 074°03'0 0.0
2017-Oct-16 14:59N 40°40' W 074°03'0 0.0
2017-Oct-16 14:29N 40°40' W 074°03'0 0.0
2017-Oct-16 13:30N 40°40' W 074°03'4 8.2
2017-Oct-16 13:00N 40°38' W 074°08'0 0.0
2017-Oct-16 12:30N 40°38' W 074°08'0 0.0
2017-Oct-16 12:00N 40°38' W 074°08'2 4.0
2017-Oct-16 11:31N 40°40' W 074°08'2 3.5
2017-Oct-16 11:01N 40°39' W 074°08'3 5.2
2017-Oct-16 10:30N 40°39' W 074°05'3 5.7
2017-Oct-16 10:00N 40°37' W 074°03'3 6.2
2017-Oct-16 09:31N 40°39' W 074°06'2 0.6
2017-Oct-16 07:00N 40°38' W 074°08'0 0.0
2017-Oct-16 06:30N 40°38' W 074°08'0 0.0
2017-Oct-16 05:45N 40°38' W 074°08'0 0.0
2017-Oct-16 05:24N 40°38' W 074°08'0 0.0
2017-Oct-16 05:00N 40°38' W 074°08'0 0.0
2017-Oct-16 04:30N 40°38' W 074°08'0 0.0
2017-Oct-16 04:00N 40°38' W 074°08'0 0.0
2017-Oct-16 03:24N 40°38' W 074°08'0 0.0
2017-Oct-16 03:00N 40°38' W 074°08'0 0.0
2017-Oct-16 02:30N 40°38' W 074°08'0 0.0
2017-Oct-16 02:00N 40°38' W 074°08'0 0.0
2017-Oct-16 01:30N 40°38' W 074°08'0 0.0
2017-Oct-15 22:27N 40°38' W 074°08'0 0.0
2017-Oct-15 22:00N 40°38' W 074°08'0 0.0
2017-Oct-15 21:30N 40°38' W 074°08'0 0.0
2017-Oct-15 18:54N 40°38' W 074°08'0 0.0
2017-Oct-15 17:36N 40°38' W 074°08'0 0.0
2017-Oct-15 17:24N 40°38' W 074°08'0 0.0
2017-Oct-15 16:54N 40°38' W 074°08'0 0.0
2017-Oct-15 16:27N 40°38' W 074°08'0 0.0
2017-Oct-15 16:00N 40°38' W 074°08'3 6.4
2017-Oct-15 15:30N 40°39' W 074°04'0 0.6
2017-Oct-15 15:00N 40°39' W 074°03'1 1.2
2017-Oct-15 14:00N 40°40' W 074°04'0 0.0
2017-Oct-15 13:30N 40°40' W 074°04'0 0.0
2017-Oct-15 13:00N 40°40' W 074°04'0 0.0
2017-Oct-15 12:30N 40°40' W 074°04'0 0.0
2017-Oct-15 12:00N 40°40' W 074°04'4 7.0
2017-Oct-15 11:30N 40°42' W 074°00'4 8.2
2017-Oct-15 11:00N 40°45' W 073°58'4 7.3
2017-Oct-15 10:30N 40°48' W 073°54'1 2.6
2017-Oct-15 09:55N 40°47' W 073°55'4 8.8
2017-Oct-15 09:30N 40°44' W 073°58'5 9.9
2017-Oct-15 09:00N 40°40' W 074°02'4 8.7
2017-Oct-15 08:30N 40°38' W 074°08'0 0.0
2017-Oct-15 08:00N 40°38' W 074°08'0 0.0
2017-Oct-15 07:30N 40°38' W 074°08'0 0.0
2017-Oct-15 07:00N 40°38' W 074°08'0 0.0
2017-Oct-15 06:30N 40°38' W 074°08'0 0.0
2017-Oct-15 06:00N 40°38' W 074°08'0 0.0
2017-Oct-15 05:30N 40°38' W 074°08'0 0.0
2017-Oct-15 05:00N 40°38' W 074°08'0 0.0
2017-Oct-15 04:30N 40°38' W 074°08'0 1.0
2017-Oct-15 04:00N 40°39' W 074°07'4 7.3
2017-Oct-15 03:30N 40°40' W 074°03'1 3.0
2017-Oct-15 03:00N 40°39' W 074°04'1 1.4
2017-Oct-15 02:30N 40°39' W 074°05'2 3.0
2017-Oct-15 01:48N 40°38' W 074°08'0 0.0
2017-Oct-15 01:30N 40°38' W 074°08'0 0.0
2017-Oct-15 00:54N 40°38' W 074°08'0 0.0
2017-Oct-14 23:00N 40°38' W 074°08'1 1.0
2017-Oct-14 22:30N 40°38' W 074°08'2 3.8
2017-Oct-14 22:00N 40°40' W 074°08'1 1.5
2017-Oct-14 21:30N 40°41' W 074°09'0 0.2
2017-Oct-14 21:00N 40°41' W 074°09'0 0.2
2017-Oct-14 20:26N 40°41' W 074°09'0 0.0
2017-Oct-14 19:56N 40°41' W 074°09'0 0.0
2017-Oct-14 19:26N 40°41' W 074°09'0 0.3
2017-Oct-14 18:59N 40°41' W 074°09'1 2.0
2017-Oct-14 18:30N 40°40' W 074°08'2 3.7
2017-Oct-14 18:00N 40°39' W 074°07'0 0.1
2017-Oct-14 15:06N 40°38' W 074°08'1 5.2
2017-Oct-14 15:00N 40°39' W 074°07'2 3.3
2017-Oct-14 14:30N 40°39' W 074°05'1 1.3
2017-Oct-14 14:00N 40°39' W 074°04'2 3.9
2017-Oct-14 13:28N 40°40' W 074°02'0 0.0
2017-Oct-14 12:58N 40°40' W 074°02'0 0.0
2017-Oct-14 12:28N 40°40' W 074°02'0 0.0
2017-Oct-14 11:58N 40°40' W 074°02'0 0.0
2017-Oct-14 11:28N 40°40' W 074°02'1 1.1
2017-Oct-14 11:00N 40°41' W 074°02'4 8.0
2017-Oct-14 10:30N 40°43' W 073°58'2 4.7
2017-Oct-14 09:59N 40°46' W 073°57'0 0.0
2017-Oct-14 08:46N 40°46' W 073°57'0 0.0
2017-Oct-14 08:22N 40°46' W 073°57'0 0.0
2017-Oct-14 07:58N 40°46' W 073°57'0 0.0
2017-Oct-14 07:25N 40°46' W 073°57'0 0.0
2017-Oct-14 06:58N 40°46' W 073°57'0 0.0
2017-Oct-14 06:22N 40°46' W 073°57'0 0.0
2017-Oct-14 05:52N 40°46' W 073°57'0 0.0
2017-Oct-14 05:28N 40°46' W 073°57'0 0.0
2017-Oct-14 04:58N 40°46' W 073°57'0 0.0
2017-Oct-14 04:19N 40°46' W 073°57'0 0.0
2017-Oct-14 03:58N 40°46' W 073°57'0 0.0
2017-Oct-14 03:04N 40°46' W 073°57'0 0.0
2017-Oct-14 02:40N 40°46' W 073°57'0 0.0
2017-Oct-14 02:28N 40°46' W 073°57'0 0.0
2017-Oct-14 01:58N 40°46' W 073°57'0 0.0
2017-Oct-14 01:28N 40°46' W 073°57'0 0.0
2017-Oct-14 00:58N 40°46' W 073°57'0 0.0
2017-Oct-14 00:22N 40°46' W 073°57'0 0.0
2017-Oct-13 23:58N 40°46' W 073°57'0 0.0
2017-Oct-13 23:28N 40°46' W 073°57'0 0.0
2017-Oct-13 22:52N 40°46' W 073°57'0 0.0
2017-Oct-13 22:25N 40°46' W 073°57'0 0.0
2017-Oct-13 21:52N 40°46' W 073°57'0 0.0
2017-Oct-13 21:28N 40°46' W 073°57'0 0.0
2017-Oct-13 20:46N 40°46' W 073°57'0 0.0
2017-Oct-13 20:28N 40°46' W 073°57'0 0.0
2017-Oct-13 19:58N 40°46' W 073°57'0 0.0
2017-Oct-13 19:28N 40°46' W 073°57'0 0.0
2017-Oct-13 18:46N 40°46' W 073°57'0 0.0
2017-Oct-13 18:25N 40°46' W 073°57'0 0.0
2017-Oct-13 17:58N 40°46' W 073°57'0 0.0
2017-Oct-13 17:28N 40°46' W 073°57'0 0.0
2017-Oct-13 16:58N 40°46' W 073°57'0 0.0
2017-Oct-13 16:28N 40°46' W 073°57'0 0.0
2017-Oct-13 15:58N 40°46' W 073°57'0 0.0
2017-Oct-13 15:28N 40°46' W 073°57'0 0.0
2017-Oct-13 14:58N 40°46' W 073°57'0 0.0
2017-Oct-13 13:19N 40°46' W 073°57'0 0.0
2017-Oct-13 12:57N 40°46' W 073°57'0 0.0
2017-Oct-13 12:30N 40°46' W 073°57'0 0.0
2017-Oct-13 12:00N 40°46' W 073°57'0 0.0
2017-Oct-13 11:30N 40°46' W 073°57'0 0.0
2017-Oct-13 10:59N 40°46' W 073°57'0 0.0
2017-Oct-13 10:23N 40°46' W 073°57'0 0.1
2017-Oct-13 10:00N 40°46' W 073°57'0 0.0
2017-Oct-13 09:30N 40°46' W 073°57'0 0.3
2017-Oct-13 08:59N 40°46' W 073°57'0 0.0
2017-Oct-13 08:30N 40°46' W 073°57'1 1.7
2017-Oct-13 07:59N 40°45' W 073°58'511.1
2017-Oct-13 07:30N 40°41' W 074°02'5 9.9
2017-Oct-13 07:00N 40°38' W 074°08'0 0.0
2017-Oct-13 06:30N 40°38' W 074°08'0 0.0
2017-Oct-13 06:00N 40°38' W 074°08'0 0.0
2017-Oct-13 05:30N 40°38' W 074°08'0 0.0
2017-Oct-13 05:00N 40°38' W 074°08'0 0.0
2017-Oct-13 04:30N 40°38' W 074°08'0 0.0
2017-Oct-13 03:59N 40°38' W 074°08'0 0.0
2017-Oct-13 03:30N 40°38' W 074°08'0 0.0
2017-Oct-13 03:00N 40°38' W 074°08'0 0.0
2017-Oct-13 02:30N 40°38' W 074°08'0 0.0
2017-Oct-13 01:59N 40°38' W 074°08'0 0.0
2017-Oct-13 01:30N 40°38' W 074°08'2 0.5
2017-Oct-12 22:00N 40°39' W 074°06'611.1
2017-Oct-12 21:29N 40°42' W 073°60'4 7.8
2017-Oct-12 21:00N 40°46' W 073°57'0 0.1
2017-Oct-12 20:30N 40°46' W 073°57'2 4.1
2017-Oct-12 20:00N 40°44' W 073°58'3 5.7
2017-Oct-12 19:29N 40°41' W 074°00'3 5.5
2017-Oct-12 19:00N 40°39' W 074°03'0 0.1
2017-Oct-12 18:30N 40°39' W 074°03'0 0.1
2017-Oct-12 18:00N 40°39' W 074°03'0 0.0
2017-Oct-12 17:30N 40°39' W 074°03'0 0.1
2017-Oct-12 17:00N 40°39' W 074°03'0 0.1
2017-Oct-12 16:30N 40°39' W 074°03'0 0.0
2017-Oct-12 16:00N 40°39' W 074°03'0 0.2
2017-Oct-12 15:30N 40°39' W 074°03'2 3.7
2017-Oct-12 15:00N 40°39' W 074°05'0 0.0
2017-Oct-12 14:30N 40°39' W 074°05'0 0.0
2017-Oct-12 14:00N 40°39' W 074°05'0 0.0
2017-Oct-12 13:23N 40°39' W 074°05'0 0.1
2017-Oct-12 12:53N 40°39' W 074°05'2 4.3
2017-Oct-12 12:23N 40°38' W 074°08'0 0.0
2017-Oct-12 10:32N 40°38' W 074°08'0 0.0
2017-Oct-12 10:26N 40°38' W 074°08'2 4.1
2017-Oct-12 10:00N 40°40' W 074°08'1 1.9
2017-Oct-12 09:19N 40°41' W 074°08'0 0.6
2017-Oct-12 08:56N 40°41' W 074°08'2 5.5
2017-Oct-12 08:30N 40°39' W 074°09'3 5.6
2017-Oct-12 08:00N 40°39' W 074°05'2 4.0
2017-Oct-12 07:30N 40°38' W 074°03'4 6.5
2017-Oct-12 06:56N 40°38' W 074°08'0 0.0
2017-Oct-12 06:26N 40°38' W 074°08'0 0.0
2017-Oct-12 05:56N 40°38' W 074°08'1 2.9
2017-Oct-12 05:29N 40°39' W 074°06'0 0.9
2017-Oct-12 04:57N 40°39' W 074°07'  
Track history (hours):
 
Tides and Currents Weather Stations Pressure Air Temp Water Temp Dewpoint Dewpoint Depression Visibility Wind Speed Wind Dir Waves Ship Positions

Brendan Turecamo

Owner: Moran Towing Corporation, New Canaan, CT. More information available from US FCC via Universal Licensing System and Coast Guard Vessel Documentation Center.

Last reported at 2017-Oct-22 04:29 UTC. Time now 2017-Oct-22 04:57 UTC.
Position N 40°46' W 073°57'.

Length 123 m; draft 4.7 m.

Type: Tug. MMSI: 366946760.

Date/timePositionNaut miles runAvg speedWind from/ knotsBaromVisibWave heightAir tempDewpointWater temp
2017-Oct-22 04:29N 40°46' W 073°57'2 3.3
2017-Oct-22 04:00N 40°44' W 073°58'3 5.9
2017-Oct-22 03:30N 40°42' W 074°00'3 5.9
2017-Oct-22 03:00N 40°40' W 074°03'0 0.2
2017-Oct-22 02:30N 40°40' W 074°03'0 0.0
2017-Oct-22 02:00N 40°40' W 074°03'0 0.0
2017-Oct-22 01:30N 40°40' W 074°03'0 0.0
2017-Oct-22 01:00N 40°40' W 074°03'0 0.0
2017-Oct-22 00:30N 40°40' W 074°03'0 0.1
2017-Oct-22 00:00N 40°40' W 074°03'0 0.0
2017-Oct-21 23:30N 40°40' W 074°03'0 0.2
2017-Oct-21 23:00N 40°40' W 074°03'0 0.1
2017-Oct-21 22:30N 40°40' W 074°03'0 0.1
2017-Oct-21 22:00N 40°39' W 074°03'0 0.1
2017-Oct-21 21:30N 40°39' W 074°03'0 0.1
2017-Oct-21 21:00N 40°39' W 074°03'2 3.3
2017-Oct-21 20:30N 40°39' W 074°05'0 0.3
2017-Oct-21 19:59N 40°39' W 074°05'0 0.0
2017-Oct-21 19:30N 40°39' W 074°05'2 4.3
2017-Oct-21 18:59N 40°38' W 074°08'0 0.1
2017-Oct-21 18:29N 40°38' W 074°08'0 0.0
2017-Oct-21 18:00N 40°38' W 074°08'0 0.0
2017-Oct-21 17:30N 40°38' W 074°08'0 0.0
2017-Oct-21 16:59N 40°38' W 074°08'0 0.0
2017-Oct-21 16:27N 40°38' W 074°08'0 0.0
2017-Oct-21 16:00N 40°38' W 074°08'0 0.0
2017-Oct-21 14:36N 40°38' W 074°08'0 0.0
2017-Oct-21 14:28N 40°38' W 074°08'0 0.0
2017-Oct-21 13:11N 40°38' W 074°08'0 0.0
2017-Oct-21 12:42N 40°38' W 074°08'0 0.0
2017-Oct-21 11:47N 40°38' W 074°08'0 0.0
2017-Oct-21 11:04N 40°38' W 074°08'0 0.9
2017-Oct-21 11:00N 40°38' W 074°08'0 0.0
2017-Oct-21 10:30N 40°38' W 074°08'0 0.0
2017-Oct-21 10:00N 40°38' W 074°08'0 0.0
2017-Oct-21 09:30N 40°38' W 074°08'0 0.0
2017-Oct-21 09:00N 40°38' W 074°08'0 0.0
2017-Oct-21 08:29N 40°38' W 074°08'0 0.0
2017-Oct-21 08:00N 40°38' W 074°08'0 0.0
2017-Oct-21 07:30N 40°38' W 074°08'0 0.0
2017-Oct-21 07:00N 40°38' W 074°08'0 0.0
2017-Oct-21 06:30N 40°38' W 074°08'0 0.0
2017-Oct-21 06:00N 40°38' W 074°08'0 0.0
2017-Oct-21 05:30N 40°38' W 074°08'0 0.0
2017-Oct-21 05:00N 40°38' W 074°08'0 0.0
2017-Oct-21 04:30N 40°38' W 074°08'0 0.0
2017-Oct-21 04:00N 40°38' W 074°08'0 0.0
2017-Oct-21 03:29N 40°38' W 074°08'0 0.0
2017-Oct-21 03:00N 40°38' W 074°08'0 0.0
2017-Oct-21 02:30N 40°38' W 074°08'2 4.4
2017-Oct-21 02:00N 40°39' W 074°05'0 0.2
2017-Oct-21 01:30N 40°39' W 074°05'1 1.3
2017-Oct-21 01:00N 40°39' W 074°04'4 8.6
2017-Oct-21 00:30N 40°43' W 074°02'5 9.4
2017-Oct-21 00:00N 40°47' W 073°60'0 0.5
2017-Oct-20 23:29N 40°47' W 073°59'0 0.1
2017-Oct-20 23:00N 40°47' W 073°59'0 0.0
2017-Oct-20 22:30N 40°47' W 073°59'0 0.0
2017-Oct-20 21:59N 40°47' W 073°59'0 0.0
2017-Oct-20 21:30N 40°47' W 073°59'0 0.0
2017-Oct-20 21:00N 40°47' W 073°59'0 0.0
2017-Oct-20 20:30N 40°47' W 073°59'0 0.0
2017-Oct-20 20:00N 40°47' W 073°59'0 0.0
2017-Oct-20 19:30N 40°47' W 073°59'0 0.0
2017-Oct-20 19:00N 40°47' W 073°59'0 0.0
2017-Oct-20 18:30N 40°47' W 073°59'0 0.0
2017-Oct-20 18:00N 40°47' W 073°59'0 0.0
2017-Oct-20 17:30N 40°47' W 073°59'0 0.0
2017-Oct-20 17:00N 40°47' W 073°59'0 0.0
2017-Oct-20 16:30N 40°47' W 073°59'0 0.1
2017-Oct-20 16:00N 40°47' W 073°59'0 0.1
2017-Oct-20 15:30N 40°47' W 073°59'0 0.0
2017-Oct-20 15:00N 40°47' W 073°59'0 0.0
2017-Oct-20 14:00N 40°47' W 073°59'0 0.0
2017-Oct-20 13:30N 40°47' W 073°59'0 0.0
2017-Oct-20 13:00N 40°47' W 073°59'0 0.0
2017-Oct-20 12:30N 40°47' W 073°59'0 0.0
2017-Oct-20 12:00N 40°47' W 073°59'0 0.0
2017-Oct-20 11:28N 40°47' W 073°59'0 0.1
2017-Oct-20 11:00N 40°47' W 073°59'0 0.2
2017-Oct-20 10:30N 40°47' W 073°59'0 0.1
2017-Oct-20 09:58N 40°47' W 073°59'0 0.0
2017-Oct-20 09:30N 40°47' W 073°59'0 0.0
2017-Oct-20 09:00N 40°47' W 073°59'0 0.0
2017-Oct-20 08:30N 40°47' W 073°59'0 0.0
2017-Oct-20 07:59N 40°47' W 073°59'0 0.0
2017-Oct-20 07:30N 40°47' W 073°59'0 0.0
2017-Oct-20 07:00N 40°47' W 073°59'0 0.0
2017-Oct-20 06:30N 40°47' W 073°59'0 0.0
2017-Oct-20 06:00N 40°47' W 073°59'0 0.0
2017-Oct-20 05:30N 40°47' W 073°59'0 0.2
2017-Oct-20 05:00N 40°47' W 073°59'0 0.2
2017-Oct-20 04:29N 40°47' W 073°59'0 0.0
2017-Oct-20 04:00N 40°47' W 073°59'0 0.0
2017-Oct-20 03:30N 40°47' W 073°59'0 0.0
2017-Oct-20 03:00N 40°47' W 073°59'0 0.0
2017-Oct-20 02:30N 40°47' W 073°59'0 0.0
2017-Oct-20 02:00N 40°47' W 073°59'0 0.0
2017-Oct-20 01:30N 40°47' W 073°59'0 0.0
2017-Oct-20 01:00N 40°47' W 073°59'0 0.0
2017-Oct-20 00:30N 40°47' W 073°59'0 0.0
2017-Oct-20 00:00N 40°47' W 073°59'0 0.0
2017-Oct-19 23:30N 40°47' W 073°59'0 0.0
2017-Oct-19 23:00N 40°47' W 073°59'0 0.0
2017-Oct-19 22:30N 40°47' W 073°59'0 0.0
2017-Oct-19 22:00N 40°48' W 073°59'0 0.2
2017-Oct-19 21:30N 40°47' W 073°59'0 0.0
2017-Oct-19 21:00N 40°47' W 073°59'0 0.0
2017-Oct-19 20:00N 40°47' W 073°59'0 0.0
2017-Oct-19 19:30N 40°47' W 073°59'0 0.0
2017-Oct-19 19:00N 40°47' W 073°59'0 0.0
2017-Oct-19 18:30N 40°47' W 073°59'0 0.0
2017-Oct-19 18:00N 40°47' W 073°59'0 0.0
2017-Oct-19 17:30N 40°47' W 073°59'0 0.2
2017-Oct-19 17:00N 40°47' W 073°59'0 0.0
2017-Oct-19 16:30N 40°47' W 073°59'0 0.0
2017-Oct-19 15:59N 40°47' W 073°59'0 0.0
2017-Oct-19 15:29N 40°47' W 073°59'0 0.0
2017-Oct-19 15:00N 40°47' W 073°59'0 0.0
2017-Oct-19 14:30N 40°47' W 073°59'0 0.0
2017-Oct-19 14:00N 40°47' W 073°59'0 0.0
2017-Oct-19 13:30N 40°47' W 073°59'0 0.0
2017-Oct-19 13:00N 40°47' W 073°59'0 0.0
2017-Oct-19 12:30N 40°47' W 073°59'0 0.0
2017-Oct-19 12:00N 40°47' W 073°59'0 0.0
2017-Oct-19 11:30N 40°47' W 073°59'0 0.0
2017-Oct-19 11:00N 40°47' W 073°59'0 0.0
2017-Oct-19 10:29N 40°47' W 073°59'0 0.1
2017-Oct-19 09:59N 40°47' W 073°59'0 0.2
2017-Oct-19 09:30N 40°47' W 073°59'0 0.1
2017-Oct-19 09:00N 40°47' W 073°59'0 0.0
2017-Oct-19 08:30N 40°47' W 073°59'0 0.0
2017-Oct-19 08:00N 40°47' W 073°59'0 0.0
2017-Oct-19 07:30N 40°47' W 073°59'0 0.0
2017-Oct-19 07:00N 40°47' W 073°59'0 0.0
2017-Oct-19 06:30N 40°47' W 073°59'0 0.0
2017-Oct-19 06:00N 40°47' W 073°59'0 0.0
2017-Oct-19 05:30N 40°47' W 073°59'0 0.0
2017-Oct-19 05:00N 40°47' W 073°59'0 0.0
2017-Oct-19 04:30N 40°47' W 073°59'0 0.2
2017-Oct-19 04:00N 40°47' W 073°59'0 0.1
2017-Oct-19 03:30N 40°47' W 073°59'0 0.0
2017-Oct-19 03:00N 40°47' W 073°59'0 0.0
2017-Oct-19 02:30N 40°48' W 073°59'0 0.0
2017-Oct-19 02:00N 40°47' W 073°59'0 0.0
2017-Oct-19 01:30N 40°47' W 073°59'0 0.0
2017-Oct-19 01:00N 40°47' W 073°59'0 0.0
2017-Oct-19 00:30N 40°47' W 073°59'0 0.0
2017-Oct-19 00:00N 40°47' W 073°59'0 0.0
2017-Oct-18 23:30N 40°47' W 073°59'0 0.0
2017-Oct-18 22:59N 40°47' W 073°59'0 0.0
2017-Oct-18 22:30N 40°47' W 073°59'0 0.0
2017-Oct-18 22:00N 40°47' W 073°59'0 0.0
2017-Oct-18 21:30N 40°48' W 073°59'0 0.2
2017-Oct-18 21:00N 40°47' W 073°59'0 0.0
2017-Oct-18 20:30N 40°47' W 073°59'0 0.0
2017-Oct-18 20:00N 40°47' W 073°59'0 0.0
2017-Oct-18 19:30N 40°47' W 073°59'0 0.0
2017-Oct-18 19:00N 40°47' W 073°59'0 0.0
2017-Oct-18 18:30N 40°47' W 073°59'0 0.0
2017-Oct-18 18:00N 40°47' W 073°59'0 0.0
2017-Oct-18 17:30N 40°47' W 073°59'0 0.0
2017-Oct-18 17:00N 40°47' W 073°59'0 0.0
2017-Oct-18 16:30N 40°47' W 073°59'0 0.0
2017-Oct-18 16:00N 40°47' W 073°59'0 0.0
2017-Oct-18 15:30N 40°47' W 073°59'0 0.2
2017-Oct-18 15:00N 40°47' W 073°59'0 0.0
2017-Oct-18 14:00N 40°47' W 073°59'0 0.0
2017-Oct-18 13:29N 40°47' W 073°59'0 0.3
2017-Oct-18 13:00N 40°47' W 073°59'511.0
2017-Oct-18 12:30N 40°42' W 074°02'2 4.9
2017-Oct-18 12:00N 40°40' W 074°02'2 3.6
2017-Oct-18 11:30N 40°39' W 074°05'2 4.8
2017-Oct-18 11:00N 40°38' W 074°08'3 2.6
2017-Oct-18 10:00N 40°39' W 074°11'0 0.4
2017-Oct-18 09:29N 40°39' W 074°11'3 5.9
2017-Oct-18 09:00N 40°39' W 074°07'3 6.4
2017-Oct-18 08:30N 40°38' W 074°03'3 6.2
2017-Oct-18 07:57N 40°38' W 074°08'0 0.0
2017-Oct-18 07:30N 40°38' W 074°08'0 0.0
2017-Oct-18 06:54N 40°38' W 074°08'0 0.0
2017-Oct-18 06:30N 40°38' W 074°08'0 0.0
2017-Oct-18 06:00N 40°38' W 074°08'0 0.0
2017-Oct-18 05:30N 40°38' W 074°08'0 0.0
2017-Oct-18 05:00N 40°38' W 074°08'0 0.0
2017-Oct-18 04:15N 40°38' W 074°08'0 0.0
2017-Oct-18 04:00N 40°38' W 074°08'0 0.0
2017-Oct-18 03:30N 40°38' W 074°08'0 0.0
2017-Oct-18 02:39N 40°38' W 074°08'0 0.0
2017-Oct-18 02:27N 40°38' W 074°08'0 0.0
2017-Oct-18 01:51N 40°38' W 074°08'0 0.0
2017-Oct-18 01:30N 40°38' W 074°08'0 0.0
2017-Oct-18 01:00N 40°38' W 074°08'0 0.0
2017-Oct-18 00:30N 40°38' W 074°08'0 0.0
2017-Oct-18 00:00N 40°38' W 074°08'0 0.0
2017-Oct-17 23:30N 40°38' W 074°08'0 0.0
2017-Oct-17 23:00N 40°38' W 074°08'0 0.0
2017-Oct-17 22:24N 40°38' W 074°08'0 0.0
2017-Oct-17 21:54N 40°38' W 074°08'1 2.5
2017-Oct-17 21:30N 40°39' W 074°09'3 4.4
2017-Oct-17 20:48N 40°42' W 074°09'2 5.8
2017-Oct-17 20:31N 40°40' W 074°08'1 1.1
2017-Oct-17 19:58N 40°40' W 074°08'2 4.1
2017-Oct-17 19:30N 40°39' W 074°06'5 9.6
2017-Oct-17 19:00N 40°41' W 074°01'0 0.6
2017-Oct-17 18:28N 40°41' W 074°00'0 0.0
2017-Oct-17 17:58N 40°41' W 074°00'0 0.5
2017-Oct-17 17:31N 40°41' W 074°01'0 0.5
2017-Oct-17 17:00N 40°41' W 074°01'2 5.0
2017-Oct-17 16:30N 40°39' W 074°03'1 1.2
2017-Oct-17 16:00N 40°39' W 074°04'3 4.5
2017-Oct-17 15:17N 40°38' W 074°08'0 0.0
2017-Oct-17 14:59N 40°38' W 074°08'0 0.0
2017-Oct-17 12:05N 40°38' W 074°08'0 3.1
2017-Oct-17 12:00N 40°39' W 074°07'4 7.3
2017-Oct-17 11:30N 40°40' W 074°03'0 0.8
2017-Oct-17 10:59N 40°40' W 074°02'0 0.0
2017-Oct-17 10:29N 40°40' W 074°02'0 0.1
2017-Oct-17 09:59N 40°40' W 074°02'0 0.0
2017-Oct-17 09:29N 40°40' W 074°02'0 0.0
2017-Oct-17 08:59N 40°40' W 074°02'0 0.1
2017-Oct-17 08:29N 40°40' W 074°03'0 0.0
2017-Oct-17 07:59N 40°40' W 074°03'0 0.0
2017-Oct-17 07:29N 40°40' W 074°03'0 0.0
2017-Oct-17 06:59N 40°40' W 074°03'0 0.0
2017-Oct-17 06:29N 40°40' W 074°03'0 0.0
2017-Oct-17 05:59N 40°40' W 074°03'0 0.0
2017-Oct-17 05:29N 40°40' W 074°03'0 0.0
2017-Oct-17 04:59N 40°40' W 074°03'0 0.0
2017-Oct-17 04:29N 40°40' W 074°03'0 0.0
2017-Oct-17 03:59N 40°40' W 074°03'0 0.0
2017-Oct-17 03:29N 40°40' W 074°03'0 0.0
2017-Oct-17 02:59N 40°40' W 074°03'0 0.0
2017-Oct-17 02:29N 40°40' W 074°03'0 0.0
2017-Oct-17 01:59N 40°40' W 074°03'0 0.0
2017-Oct-17 01:29N 40°40' W 074°03'0 0.0
2017-Oct-17 00:59N 40°40' W 074°03'0 0.0
2017-Oct-17 00:29N 40°40' W 074°02'0 0.0
2017-Oct-16 23:59N 40°40' W 074°02'0 0.1
2017-Oct-16 23:29N 40°40' W 074°02'0 0.0
2017-Oct-16 22:59N 40°40' W 074°02'0 0.0
2017-Oct-16 22:29N 40°40' W 074°02'0 0.0
2017-Oct-16 21:56N 40°40' W 074°02'0 0.1
2017-Oct-16 21:29N 40°40' W 074°03'0 0.0
2017-Oct-16 20:59N 40°40' W 074°03'0 0.0
2017-Oct-16 20:29N 40°40' W 074°02'0 0.1
2017-Oct-16 19:59N 40°40' W 074°03'0 0.0
2017-Oct-16 19:29N 40°40' W 074°03'0 0.0
2017-Oct-16 18:59N 40°40' W 074°03'0 0.0
2017-Oct-16 18:29N 40°40' W 074°03'0 0.0
2017-Oct-16 17:59N 40°40' W 074°03'0 0.0
2017-Oct-16 17:29N 40°40' W 074°03'0 0.0
2017-Oct-16 16:59N 40°40' W 074°03'0 0.0
2017-Oct-16 16:29N 40°40' W 074°03'0 0.0
2017-Oct-16 15:59N 40°40' W 074°03'0 0.0
2017-Oct-16 15:29N 40°40' W 074°03'0 0.0
2017-Oct-16 14:59N 40°40' W 074°03'0 0.0
2017-Oct-16 14:29N 40°40' W 074°03'0 0.0
2017-Oct-16 13:30N 40°40' W 074°03'4 8.2
2017-Oct-16 13:00N 40°38' W 074°08'0 0.0
2017-Oct-16 12:30N 40°38' W 074°08'0 0.0
2017-Oct-16 12:00N 40°38' W 074°08'2 4.0
2017-Oct-16 11:31N 40°40' W 074°08'2 3.5
2017-Oct-16 11:01N 40°39' W 074°08'3 5.2
2017-Oct-16 10:30N 40°39' W 074°05'3 5.7
2017-Oct-16 10:00N 40°37' W 074°03'3 6.2
2017-Oct-16 09:31N 40°39' W 074°06'2 0.6
2017-Oct-16 07:00N 40°38' W 074°08'0 0.0
2017-Oct-16 06:30N 40°38' W 074°08'0 0.0
2017-Oct-16 05:45N 40°38' W 074°08'0 0.0
2017-Oct-16 05:24N 40°38' W 074°08'0 0.0
2017-Oct-16 05:00N 40°38' W 074°08'0 0.0
2017-Oct-16 04:30N 40°38' W 074°08'0 0.0
2017-Oct-16 04:00N 40°38' W 074°08'0 0.0
2017-Oct-16 03:24N 40°38' W 074°08'0 0.0
2017-Oct-16 03:00N 40°38' W 074°08'0 0.0
2017-Oct-16 02:30N 40°38' W 074°08'0 0.0
2017-Oct-16 02:00N 40°38' W 074°08'0 0.0
2017-Oct-16 01:30N 40°38' W 074°08'0 0.0
2017-Oct-15 22:27N 40°38' W 074°08'0 0.0
2017-Oct-15 22:00N 40°38' W 074°08'0 0.0
2017-Oct-15 21:30N 40°38' W 074°08'0 0.0
2017-Oct-15 18:54N 40°38' W 074°08'0 0.0
2017-Oct-15 17:36N 40°38' W 074°08'0 0.0
2017-Oct-15 17:24N 40°38' W 074°08'0 0.0
2017-Oct-15 16:54N 40°38' W 074°08'0 0.0
2017-Oct-15 16:27N 40°38' W 074°08'0 0.0
2017-Oct-15 16:00N 40°38' W 074°08'3 6.4
2017-Oct-15 15:30N 40°39' W 074°04'0 0.6
2017-Oct-15 15:00N 40°39' W 074°03'1 1.2
2017-Oct-15 14:00N 40°40' W 074°04'0 0.0
2017-Oct-15 13:30N 40°40' W 074°04'0 0.0
2017-Oct-15 13:00N 40°40' W 074°04'0 0.0
2017-Oct-15 12:30N 40°40' W 074°04'0 0.0
2017-Oct-15 12:00N 40°40' W 074°04'4 7.0
2017-Oct-15 11:30N 40°42' W 074°00'4 8.2
2017-Oct-15 11:00N 40°45' W 073°58'4 7.3
2017-Oct-15 10:30N 40°48' W 073°54'1 2.6
2017-Oct-15 09:55N 40°47' W 073°55'4 8.8
2017-Oct-15 09:30N 40°44' W 073°58'5 9.9
2017-Oct-15 09:00N 40°40' W 074°02'4 8.7
2017-Oct-15 08:30N 40°38' W 074°08'0 0.0
2017-Oct-15 08:00N 40°38' W 074°08'0 0.0
2017-Oct-15 07:30N 40°38' W 074°08'0 0.0
2017-Oct-15 07:00N 40°38' W 074°08'0 0.0
2017-Oct-15 06:30N 40°38' W 074°08'0 0.0
2017-Oct-15 06:00N 40°38' W 074°08'0 0.0
2017-Oct-15 05:30N 40°38' W 074°08'0 0.0
2017-Oct-15 05:00N 40°38' W 074°08'0 0.0
2017-Oct-15 04:30N 40°38' W 074°08'0 1.0
2017-Oct-15 04:00N 40°39' W 074°07'4 7.3
2017-Oct-15 03:30N 40°40' W 074°03'1 3.0
2017-Oct-15 03:00N 40°39' W 074°04'1 1.4
2017-Oct-15 02:30N 40°39' W 074°05'2 3.0
2017-Oct-15 01:48N 40°38' W 074°08'0 0.0
2017-Oct-15 01:30N 40°38' W 074°08'0 0.0
2017-Oct-15 00:54N 40°38' W 074°08'0 0.0
2017-Oct-14 23:00N 40°38' W 074°08'1 1.0
2017-Oct-14 22:30N 40°38' W 074°08'2 3.8
2017-Oct-14 22:00N 40°40' W 074°08'1 1.5
2017-Oct-14 21:30N 40°41' W 074°09'0 0.2
2017-Oct-14 21:00N 40°41' W 074°09'0 0.2
2017-Oct-14 20:26N 40°41' W 074°09'0 0.0
2017-Oct-14 19:56N 40°41' W 074°09'0 0.0
2017-Oct-14 19:26N 40°41' W 074°09'0 0.3
2017-Oct-14 18:59N 40°41' W 074°09'1 2.0
2017-Oct-14 18:30N 40°40' W 074°08'2 3.7
2017-Oct-14 18:00N 40°39' W 074°07'0 0.1
2017-Oct-14 15:06N 40°38' W 074°08'1 5.2
2017-Oct-14 15:00N 40°39' W 074°07'2 3.3
2017-Oct-14 14:30N 40°39' W 074°05'1 1.3
2017-Oct-14 14:00N 40°39' W 074°04'2 3.9
2017-Oct-14 13:28N 40°40' W 074°02'0 0.0
2017-Oct-14 12:58N 40°40' W 074°02'0 0.0
2017-Oct-14 12:28N 40°40' W 074°02'0 0.0
2017-Oct-14 11:58N 40°40' W 074°02'0 0.0
2017-Oct-14 11:28N 40°40' W 074°02'1 1.1
2017-Oct-14 11:00N 40°41' W 074°02'4 8.0
2017-Oct-14 10:30N 40°43' W 073°58'2 4.7
2017-Oct-14 09:59N 40°46' W 073°57'0 0.0
2017-Oct-14 08:46N 40°46' W 073°57'0 0.0
2017-Oct-14 08:22N 40°46' W 073°57'0 0.0
2017-Oct-14 07:58N 40°46' W 073°57'0 0.0
2017-Oct-14 07:25N 40°46' W 073°57'0 0.0
2017-Oct-14 06:58N 40°46' W 073°57'0 0.0
2017-Oct-14 06:22N 40°46' W 073°57'0 0.0
2017-Oct-14 05:52N 40°46' W 073°57'0 0.0
2017-Oct-14 05:28N 40°46' W 073°57'0 0.0
2017-Oct-14 04:58N 40°46' W 073°57'0 0.0
2017-Oct-14 04:19N 40°46' W 073°57'0 0.0
2017-Oct-14 03:58N 40°46' W 073°57'0 0.0
2017-Oct-14 03:04N 40°46' W 073°57'0 0.0
2017-Oct-14 02:40N 40°46' W 073°57'0 0.0
2017-Oct-14 02:28N 40°46' W 073°57'0 0.0
2017-Oct-14 01:58N 40°46' W 073°57'0 0.0
2017-Oct-14 01:28N 40°46' W 073°57'0 0.0
2017-Oct-14 00:58N 40°46' W 073°57'0 0.0
2017-Oct-14 00:22N 40°46' W 073°57'0 0.0
2017-Oct-13 23:58N 40°46' W 073°57'0 0.0
2017-Oct-13 23:28N 40°46' W 073°57'0 0.0
2017-Oct-13 22:52N 40°46' W 073°57'0 0.0
2017-Oct-13 22:25N 40°46' W 073°57'0 0.0
2017-Oct-13 21:52N 40°46' W 073°57'0 0.0
2017-Oct-13 21:28N 40°46' W 073°57'0 0.0
2017-Oct-13 20:46N 40°46' W 073°57'0 0.0
2017-Oct-13 20:28N 40°46' W 073°57'0 0.0
2017-Oct-13 19:58N 40°46' W 073°57'0 0.0
2017-Oct-13 19:28N 40°46' W 073°57'0 0.0
2017-Oct-13 18:46N 40°46' W 073°57'0 0.0
2017-Oct-13 18:25N 40°46' W 073°57'0 0.0
2017-Oct-13 17:58N 40°46' W 073°57'0 0.0
2017-Oct-13 17:28N 40°46' W 073°57'0 0.0
2017-Oct-13 16:58N 40°46' W 073°57'0 0.0
2017-Oct-13 16:28N 40°46' W 073°57'0 0.0
2017-Oct-13 15:58N 40°46' W 073°57'0 0.0
2017-Oct-13 15:28N 40°46' W 073°57'0 0.0
2017-Oct-13 14:58N 40°46' W 073°57'0 0.0
2017-Oct-13 13:19N 40°46' W 073°57'0 0.0
2017-Oct-13 12:57N 40°46' W 073°57'0 0.0
2017-Oct-13 12:30N 40°46' W 073°57'0 0.0
2017-Oct-13 12:00N 40°46' W 073°57'0 0.0
2017-Oct-13 11:30N 40°46' W 073°57'0 0.0
2017-Oct-13 10:59N 40°46' W 073°57'0 0.0
2017-Oct-13 10:23N 40°46' W 073°57'0 0.1
2017-Oct-13 10:00N 40°46' W 073°57'0 0.0
2017-Oct-13 09:30N 40°46' W 073°57'0 0.3
2017-Oct-13 08:59N 40°46' W 073°57'0 0.0
2017-Oct-13 08:30N 40°46' W 073°57'1 1.7
2017-Oct-13 07:59N 40°45' W 073°58'511.1
2017-Oct-13 07:30N 40°41' W 074°02'5 9.9
2017-Oct-13 07:00N 40°38' W 074°08'0 0.0
2017-Oct-13 06:30N 40°38' W 074°08'0 0.0
2017-Oct-13 06:00N 40°38' W 074°08'0 0.0
2017-Oct-13 05:30N 40°38' W 074°08'0 0.0
2017-Oct-13 05:00N 40°38' W 074°08'0 0.0
2017-Oct-13 04:30N 40°38' W 074°08'0 0.0
2017-Oct-13 03:59N 40°38' W 074°08'0 0.0
2017-Oct-13 03:30N 40°38' W 074°08'0 0.0
2017-Oct-13 03:00N 40°38' W 074°08'0 0.0
2017-Oct-13 02:30N 40°38' W 074°08'0 0.0
2017-Oct-13 01:59N 40°38' W 074°08'0 0.0
2017-Oct-13 01:30N 40°38' W 074°08'2 0.5
2017-Oct-12 22:00N 40°39' W 074°06'611.1
2017-Oct-12 21:29N 40°42' W 073°60'4 7.8
2017-Oct-12 21:00N 40°46' W 073°57'0 0.1
2017-Oct-12 20:30N 40°46' W 073°57'2 4.1
2017-Oct-12 20:00N 40°44' W 073°58'3 5.7
2017-Oct-12 19:29N 40°41' W 074°00'3 5.5
2017-Oct-12 19:00N 40°39' W 074°03'0 0.1
2017-Oct-12 18:30N 40°39' W 074°03'0 0.1
2017-Oct-12 18:00N 40°39' W 074°03'0 0.0
2017-Oct-12 17:30N 40°39' W 074°03'0 0.1
2017-Oct-12 17:00N 40°39' W 074°03'0 0.1
2017-Oct-12 16:30N 40°39' W 074°03'0 0.0
2017-Oct-12 16:00N 40°39' W 074°03'0 0.2
2017-Oct-12 15:30N 40°39' W 074°03'2 3.7
2017-Oct-12 15:00N 40°39' W 074°05'0 0.0
2017-Oct-12 14:30N 40°39' W 074°05'0 0.0
2017-Oct-12 14:00N 40°39' W 074°05'0 0.0
2017-Oct-12 13:23N 40°39' W 074°05'0 0.1
2017-Oct-12 12:53N 40°39' W 074°05'2 4.3
2017-Oct-12 12:23N 40°38' W 074°08'0 0.0
2017-Oct-12 10:32N 40°38' W 074°08'0 0.0
2017-Oct-12 10:26N 40°38' W 074°08'2 4.1
2017-Oct-12 10:00N 40°40' W 074°08'1 1.9
2017-Oct-12 09:19N 40°41' W 074°08'0 0.6
2017-Oct-12 08:56N 40°41' W 074°08'2 5.5
2017-Oct-12 08:30N 40°39' W 074°09'3 5.6
2017-Oct-12 08:00N 40°39' W 074°05'2 4.0
2017-Oct-12 07:30N 40°38' W 074°03'4 6.5
2017-Oct-12 06:56N 40°38' W 074°08'0 0.0
2017-Oct-12 06:26N 40°38' W 074°08'0 0.0
2017-Oct-12 05:56N 40°38' W 074°08'1 2.9
2017-Oct-12 05:29N 40°39' W 074°06'0 0.9
2017-Oct-12 04:57N 40°39' W 074°07'  

Dump ship's entire track history